HS Bizet — A8MI3 — position and weather

sailwx.info

Track history (hours):
 
Tides and Currents Weather Stations Pressure Air Temp Water Temp Dewpoint Dewpoint Depression Visibility Wind Speed Wind Dir Waves Ship Positions

HS Bizet

Last reported at 2017-May-22 02:41 UTC. Time now 2017-May-24 09:57 UTC.
Position S 37°53' E 149°37'.

Length 246 m; draft 8.5 m.

Type: Ship (hazmat cat A). MMSI: 636091349.

Date/timePositionNaut miles runAvg speedWind from/ knotsBaromVisibWave heightAir tempDewpointWater temp
2017-May-22 02:41S 37°53' E 149°37'615.9
2017-May-22 02:19S 37°57' E 149°32'515.6
2017-May-22 02:00S 37°60' E 149°27'815.7
2017-May-22 01:30S 38°05' E 149°19'815.9
2017-May-22 01:00S 38°10' E 149°12'815.5
2017-May-22 00:29S 38°15' E 149°04'815.9
2017-May-21 23:59S 38°20' E 148°56'815.5
2017-May-21 23:30S 38°25' E 148°49'815.2
2017-May-21 22:57S 38°31' E 148°41'715.1
2017-May-21 22:30S 38°35' E 148°34'815.0
2017-May-21 22:00S 38°40' E 148°27'814.9
2017-May-21 21:29S 38°45' E 148°19'814.9
2017-May-21 20:59S 38°49' E 148°11'715.0
2017-May-21 20:29S 38°51' E 148°02'714.8
2017-May-21 20:00S 38°54' E 147°53'714.7
2017-May-21 19:30S 38°56' E 147°44'714.7
2017-May-21 19:00S 38°59' E 147°35'13611.1
2017-May-21 06:42S 38°05' E 144°55'519.2
2017-May-21 06:27S 38°01' E 144°55'714.7
2017-May-21 05:57S 37°53' E 144°56'4 7.5
2017-May-21 05:25S 37°49' E 144°54'1 0.0
2017-May-20 04:03S 37°49' E 144°55'4 4.1
2017-May-20 03:05S 37°52' E 144°56'1 9.7
2017-May-20 03:00S 37°53' E 144°56'  
2017-May-15 06:22S 36°51' E 174°47'0 0.0
2017-May-14 20:52S 36°51' E 174°47'0 0.0
2017-May-14 20:22S 36°51' E 174°47'0 0.1
2017-May-14 19:56S 36°50' E 174°47'2 4.6
2017-May-14 19:28S 36°50' E 174°50'613.1
2017-May-14 19:00S 36°44' E 174°51'5 9.6
2017-May-14 18:30S 36°40' E 174°55'611.9
2017-May-14 18:00S 36°35' E 174°59'611.7
2017-May-14 17:30S 36°30' E 175°02'611.8
2017-May-14 17:00S 36°24' E 175°04'611.8
2017-May-14 16:30S 36°19' E 175°07'611.5
2017-May-14 16:00S 36°14' E 175°09'917.0
2017-May-14 15:27S 36°05' E 175°15'818.1
2017-May-14 15:00S 35°58' E 175°20'918.4
2017-May-14 14:30S 35°51' E 175°27'  
Track history (hours):
 
Tides and Currents Weather Stations Pressure Air Temp Water Temp Dewpoint Dewpoint Depression Visibility Wind Speed Wind Dir Waves Ship Positions

HS Bizet

Last reported at 2017-May-22 02:41 UTC. Time now 2017-May-24 09:57 UTC.
Position S 37°53' E 149°37'.

Length 246 m; draft 8.5 m.

Type: Ship (hazmat cat A). MMSI: 636091349.

Date/timePositionNaut miles runAvg speedWind from/ knotsBaromVisibWave heightAir tempDewpointWater temp
2017-May-22 02:41S 37°53' E 149°37'615.9
2017-May-22 02:19S 37°57' E 149°32'515.6
2017-May-22 02:00S 37°60' E 149°27'815.7
2017-May-22 01:30S 38°05' E 149°19'815.9
2017-May-22 01:00S 38°10' E 149°12'815.5
2017-May-22 00:29S 38°15' E 149°04'815.9
2017-May-21 23:59S 38°20' E 148°56'815.5
2017-May-21 23:30S 38°25' E 148°49'815.2
2017-May-21 22:57S 38°31' E 148°41'715.1
2017-May-21 22:30S 38°35' E 148°34'815.0
2017-May-21 22:00S 38°40' E 148°27'814.9
2017-May-21 21:29S 38°45' E 148°19'814.9
2017-May-21 20:59S 38°49' E 148°11'715.0
2017-May-21 20:29S 38°51' E 148°02'714.8
2017-May-21 20:00S 38°54' E 147°53'714.7
2017-May-21 19:30S 38°56' E 147°44'714.7
2017-May-21 19:00S 38°59' E 147°35'13611.1
2017-May-21 06:42S 38°05' E 144°55'519.2
2017-May-21 06:27S 38°01' E 144°55'714.7
2017-May-21 05:57S 37°53' E 144°56'4 7.5
2017-May-21 05:25S 37°49' E 144°54'1 0.0
2017-May-20 04:03S 37°49' E 144°55'4 4.1
2017-May-20 03:05S 37°52' E 144°56'1 9.7
2017-May-20 03:00S 37°53' E 144°56'  
2017-May-15 06:22S 36°51' E 174°47'0 0.0
2017-May-14 20:52S 36°51' E 174°47'0 0.0
2017-May-14 20:22S 36°51' E 174°47'0 0.1
2017-May-14 19:56S 36°50' E 174°47'2 4.6
2017-May-14 19:28S 36°50' E 174°50'613.1
2017-May-14 19:00S 36°44' E 174°51'5 9.6
2017-May-14 18:30S 36°40' E 174°55'611.9
2017-May-14 18:00S 36°35' E 174°59'611.7
2017-May-14 17:30S 36°30' E 175°02'611.8
2017-May-14 17:00S 36°24' E 175°04'611.8
2017-May-14 16:30S 36°19' E 175°07'611.5
2017-May-14 16:00S 36°14' E 175°09'917.0
2017-May-14 15:27S 36°05' E 175°15'818.1
2017-May-14 15:00S 35°58' E 175°20'918.4
2017-May-14 14:30S 35°51' E 175°27'  

Dump ship's entire track history